sensor_id;sensor_type;location;lat;lon;timestamp;P1;durP1;ratioP1;P2;durP2;ratioP2
773;SDS011;370;48.810;9.150;2022-10-13T00:01:21;10.48;;;4.57;;
773;SDS011;370;48.810;9.150;2022-10-13T00:03:48;11.57;;;4.97;;
773;SDS011;370;48.810;9.150;2022-10-13T00:06:21;10.55;;;5.13;;
773;SDS011;370;48.810;9.150;2022-10-13T00:08:50;9.57;;;4.70;;
773;SDS011;370;48.810;9.150;2022-10-13T00:11:18;15.27;;;5.45;;
773;SDS011;370;48.810;9.150;2022-10-13T00:13:48;12.82;;;5.40;;
773;SDS011;370;48.810;9.150;2022-10-13T00:16:16;12.60;;;4.80;;
773;SDS011;370;48.810;9.150;2022-10-13T00:18:45;22.40;;;4.60;;
773;SDS011;370;48.810;9.150;2022-10-13T00:21:13;21.45;;;6.38;;
773;SDS011;370;48.810;9.150;2022-10-13T00:23:41;8.90;;;4.80;;
773;SDS011;370;48.810;9.150;2022-10-13T00:26:10;16.75;;;5.55;;
773;SDS011;370;48.810;9.150;2022-10-13T00:28:39;17.25;;;6.18;;
773;SDS011;370;48.810;9.150;2022-10-13T00:31:13;17.35;;;6.25;;
773;SDS011;370;48.810;9.150;2022-10-13T00:33:40;13.50;;;5.90;;
773;SDS011;370;48.810;9.150;2022-10-13T00:36:07;19.85;;;5.60;;
773;SDS011;370;48.810;9.150;2022-10-13T00:38:34;11.05;;;4.63;;
773;SDS011;370;48.810;9.150;2022-10-13T00:41:01;22.27;;;7.00;;
773;SDS011;370;48.810;9.150;2022-10-13T00:46:15;11.70;;;4.85;;
773;SDS011;370;48.810;9.150;2022-10-13T00:48:42;14.13;;;5.22;;
773;SDS011;370;48.810;9.150;2022-10-13T00:51:11;16.58;;;7.38;;
773;SDS011;370;48.810;9.150;2022-10-13T00:53:41;8.90;;;4.43;;
773;SDS011;370;48.810;9.150;2022-10-13T00:56:09;12.85;;;5.60;;
773;SDS011;370;48.810;9.150;2022-10-13T00:58:38;8.30;;;4.60;;
773;SDS011;370;48.810;9.150;2022-10-13T01:01:07;19.58;;;5.35;;
773;SDS011;370;48.810;9.150;2022-10-13T01:03:34;12.98;;;5.47;;
773;SDS011;370;48.810;9.150;2022-10-13T01:06:02;14.45;;;5.45;;
773;SDS011;370;48.810;9.150;2022-10-13T01:08:30;12.18;;;4.55;;
773;SDS011;370;48.810;9.150;2022-10-13T01:10:59;13.73;;;5.60;;
773;SDS011;370;48.810;9.150;2022-10-13T01:13:36;11.25;;;5.55;;
773;SDS011;370;48.810;9.150;2022-10-13T01:16:14;9.90;;;4.20;;
773;SDS011;370;48.810;9.150;2022-10-13T01:18:49;30.40;;;5.72;;
773;SDS011;370;48.810;9.150;2022-10-13T01:21:23;12.25;;;5.80;;
773;SDS011;370;48.810;9.150;2022-10-13T01:24:20;15.70;;;5.80;;
773;SDS011;370;48.810;9.150;2022-10-13T01:27:03;16.77;;;5.45;;
773;SDS011;370;48.810;9.150;2022-10-13T01:32:47;9.55;;;4.53;;
773;SDS011;370;48.810;9.150;2022-10-13T01:35:46;13.23;;;4.65;;
773;SDS011;370;48.810;9.150;2022-10-13T01:38:23;13.13;;;4.70;;
773;SDS011;370;48.810;9.150;2022-10-13T01:40:58;14.90;;;5.40;;
773;SDS011;370;48.810;9.150;2022-10-13T01:43:31;11.23;;;4.55;;
773;SDS011;370;48.810;9.150;2022-10-13T01:46:04;9.73;;;5.05;;
773;SDS011;370;48.810;9.150;2022-10-13T01:48:35;10.40;;;4.18;;
773;SDS011;370;48.810;9.150;2022-10-13T01:51:04;9.25;;;3.90;;
773;SDS011;370;48.810;9.150;2022-10-13T01:53:34;13.20;;;6.13;;
773;SDS011;370;48.810;9.150;2022-10-13T01:56:01;14.60;;;4.97;;
773;SDS011;370;48.810;9.150;2022-10-13T01:58:29;25.02;;;6.35;;
773;SDS011;370;48.810;9.150;2022-10-13T02:01:19;16.45;;;6.35;;
773;SDS011;370;48.810;9.150;2022-10-13T02:03:56;11.75;;;4.80;;
773;SDS011;370;48.810;9.150;2022-10-13T02:06:36;15.45;;;5.00;;
773;SDS011;370;48.810;9.150;2022-10-13T02:09:07;11.77;;;4.85;;
773;SDS011;370;48.810;9.150;2022-10-13T02:11:38;19.00;;;4.75;;
773;SDS011;370;48.810;9.150;2022-10-13T02:14:10;11.65;;;5.30;;
773;SDS011;370;48.810;9.150;2022-10-13T02:16:43;7.85;;;3.88;;
773;SDS011;370;48.810;9.150;2022-10-13T02:19:13;15.32;;;5.50;;
773;SDS011;370;48.810;9.150;2022-10-13T02:21:42;7.55;;;4.25;;
773;SDS011;370;48.810;9.150;2022-10-13T02:24:09;16.55;;;5.50;;
773;SDS011;370;48.810;9.150;2022-10-13T02:26:37;16.00;;;5.00;;
773;SDS011;370;48.810;9.150;2022-10-13T02:29:06;27.02;;;5.25;;
773;SDS011;370;48.810;9.150;2022-10-13T02:31:34;12.57;;;4.80;;
773;SDS011;370;48.810;9.150;2022-10-13T02:34:02;12.23;;;4.82;;
773;SDS011;370;48.810;9.150;2022-10-13T02:36:30;9.43;;;4.30;;
773;SDS011;370;48.810;9.150;2022-10-13T02:38:57;13.88;;;4.90;;
773;SDS011;370;48.810;9.150;2022-10-13T02:41:24;15.57;;;5.40;;
773;SDS011;370;48.810;9.150;2022-10-13T02:43:51;15.10;;;4.95;;
773;SDS011;370;48.810;9.150;2022-10-13T02:46:18;11.95;;;4.88;;
773;SDS011;370;48.810;9.150;2022-10-13T02:48:44;14.77;;;5.63;;
773;SDS011;370;48.810;9.150;2022-10-13T02:51:13;15.18;;;6.35;;
773;SDS011;370;48.810;9.150;2022-10-13T02:53:40;15.82;;;5.88;;
773;SDS011;370;48.810;9.150;2022-10-13T02:56:06;21.33;;;5.10;;
773;SDS011;370;48.810;9.150;2022-10-13T02:58:33;17.52;;;5.10;;
773;SDS011;370;48.810;9.150;2022-10-13T03:01:04;6.90;;;3.83;;
773;SDS011;370;48.810;9.150;2022-10-13T03:03:31;9.15;;;3.83;;
773;SDS011;370;48.810;9.150;2022-10-13T03:05:59;15.13;;;5.30;;
773;SDS011;370;48.810;9.150;2022-10-13T03:08:28;24.02;;;6.97;;
773;SDS011;370;48.810;9.150;2022-10-13T03:10:56;13.90;;;5.57;;
773;SDS011;370;48.810;9.150;2022-10-13T03:13:23;27.08;;;5.82;;
773;SDS011;370;48.810;9.150;2022-10-13T03:15:50;25.40;;;6.10;;
773;SDS011;370;48.810;9.150;2022-10-13T03:18:17;14.25;;;5.40;;
773;SDS011;370;48.810;9.150;2022-10-13T03:20:43;10.75;;;4.70;;
773;SDS011;370;48.810;9.150;2022-10-13T03:23:10;18.33;;;5.90;;
773;SDS011;370;48.810;9.150;2022-10-13T03:25:38;8.60;;;4.90;;
773;SDS011;370;48.810;9.150;2022-10-13T03:28:05;10.52;;;4.78;;
773;SDS011;370;48.810;9.150;2022-10-13T03:30:32;7.05;;;3.85;;
773;SDS011;370;48.810;9.150;2022-10-13T03:32:59;11.30;;;5.50;;
773;SDS011;370;48.810;9.150;2022-10-13T03:35:26;17.17;;;5.88;;
773;SDS011;370;48.810;9.150;2022-10-13T03:37:52;20.50;;;5.32;;
773;SDS011;370;48.810;9.150;2022-10-13T03:40:19;16.15;;;5.82;;
773;SDS011;370;48.810;9.150;2022-10-13T03:42:47;17.17;;;6.03;;
773;SDS011;370;48.810;9.150;2022-10-13T03:45:14;17.27;;;7.03;;
773;SDS011;370;48.810;9.150;2022-10-13T03:47:41;28.83;;;6.88;;
773;SDS011;370;48.810;9.150;2022-10-13T03:50:08;17.90;;;5.70;;
773;SDS011;370;48.810;9.150;2022-10-13T03:52:35;16.55;;;5.85;;
773;SDS011;370;48.810;9.150;2022-10-13T03:55:02;16.95;;;6.47;;
773;SDS011;370;48.810;9.150;2022-10-13T03:57:30;12.50;;;5.15;;
773;SDS011;370;48.810;9.150;2022-10-13T03:59:58;12.70;;;6.22;;
773;SDS011;370;48.810;9.150;2022-10-13T04:02:25;19.17;;;6.13;;
773;SDS011;370;48.810;9.150;2022-10-13T04:04:52;11.38;;;6.25;;
773;SDS011;370;48.810;9.150;2022-10-13T04:07:19;22.05;;;8.15;;
773;SDS011;370;48.810;9.150;2022-10-13T04:09:46;27.40;;;7.85;;
773;SDS011;370;48.810;9.150;2022-10-13T04:12:13;16.95;;;6.65;;
773;SDS011;370;48.810;9.150;2022-10-13T04:14:39;16.85;;;6.50;;
773;SDS011;370;48.810;9.150;2022-10-13T04:17:07;16.30;;;5.78;;
773;SDS011;370;48.810;9.150;2022-10-13T04:19:34;15.38;;;6.32;;
773;SDS011;370;48.810;9.150;2022-10-13T04:22:01;14.60;;;5.40;;
773;SDS011;370;48.810;9.150;2022-10-13T04:24:28;22.45;;;6.70;;
773;SDS011;370;48.810;9.150;2022-10-13T04:26:55;18.42;;;6.53;;
773;SDS011;370;48.810;9.150;2022-10-13T04:29:22;21.25;;;5.68;;
773;SDS011;370;48.810;9.150;2022-10-13T04:31:49;19.20;;;6.93;;
773;SDS011;370;48.810;9.150;2022-10-13T04:34:17;35.80;;;7.18;;
773;SDS011;370;48.810;9.150;2022-10-13T04:36:44;13.25;;;6.05;;
773;SDS011;370;48.810;9.150;2022-10-13T04:39:11;13.30;;;6.68;;
773;SDS011;370;48.810;9.150;2022-10-13T04:41:38;19.17;;;6.22;;
773;SDS011;370;48.810;9.150;2022-10-13T04:44:05;16.27;;;5.97;;
773;SDS011;370;48.810;9.150;2022-10-13T04:46:31;15.55;;;5.88;;
773;SDS011;370;48.810;9.150;2022-10-13T04:48:58;17.90;;;7.25;;
773;SDS011;370;48.810;9.150;2022-10-13T04:51:26;15.85;;;6.28;;
773;SDS011;370;48.810;9.150;2022-10-13T04:53:53;12.20;;;5.80;;
773;SDS011;370;48.810;9.150;2022-10-13T04:56:21;14.43;;;6.80;;
773;SDS011;370;48.810;9.150;2022-10-13T04:58:48;15.07;;;6.22;;
773;SDS011;370;48.810;9.150;2022-10-13T05:01:15;14.82;;;6.90;;
773;SDS011;370;48.810;9.150;2022-10-13T05:03:44;14.68;;;6.00;;
773;SDS011;370;48.810;9.150;2022-10-13T05:06:14;16.02;;;5.90;;
773;SDS011;370;48.810;9.150;2022-10-13T05:08:43;17.98;;;6.80;;
773;SDS011;370;48.810;9.150;2022-10-13T05:11:10;15.93;;;6.32;;
773;SDS011;370;48.810;9.150;2022-10-13T05:13:37;15.80;;;6.30;;
773;SDS011;370;48.810;9.150;2022-10-13T05:16:07;25.42;;;6.88;;
773;SDS011;370;48.810;9.150;2022-10-13T05:18:34;34.88;;;6.55;;
773;SDS011;370;48.810;9.150;2022-10-13T05:21:05;14.55;;;5.85;;
773;SDS011;370;48.810;9.150;2022-10-13T05:23:33;15.80;;;7.28;;
773;SDS011;370;48.810;9.150;2022-10-13T05:26:02;18.17;;;7.57;;
773;SDS011;370;48.810;9.150;2022-10-13T05:28:30;16.65;;;6.90;;
773;SDS011;370;48.810;9.150;2022-10-13T05:30:57;14.25;;;5.20;;
773;SDS011;370;48.810;9.150;2022-10-13T05:33:34;24.38;;;7.25;;
773;SDS011;370;48.810;9.150;2022-10-13T05:36:02;14.63;;;6.10;;
773;SDS011;370;48.810;9.150;2022-10-13T05:38:32;14.68;;;5.82;;
773;SDS011;370;48.810;9.150;2022-10-13T05:41:04;11.82;;;5.18;;
773;SDS011;370;48.810;9.150;2022-10-13T05:43:32;16.85;;;6.70;;
773;SDS011;370;48.810;9.150;2022-10-13T05:45:59;19.80;;;5.43;;
773;SDS011;370;48.810;9.150;2022-10-13T05:48:26;17.00;;;6.10;;
773;SDS011;370;48.810;9.150;2022-10-13T05:50:54;17.90;;;6.30;;
773;SDS011;370;48.810;9.150;2022-10-13T05:53:24;18.30;;;7.03;;
773;SDS011;370;48.810;9.150;2022-10-13T05:55:53;12.43;;;5.40;;
773;SDS011;370;48.810;9.150;2022-10-13T05:58:24;22.48;;;7.22;;
773;SDS011;370;48.810;9.150;2022-10-13T06:00:51;26.48;;;8.30;;
773;SDS011;370;48.810;9.150;2022-10-13T06:03:20;16.23;;;6.78;;
773;SDS011;370;48.810;9.150;2022-10-13T06:05:48;22.30;;;8.23;;
773;SDS011;370;48.810;9.150;2022-10-13T06:08:15;15.55;;;6.45;;
773;SDS011;370;48.810;9.150;2022-10-13T06:10:42;28.65;;;7.22;;
773;SDS011;370;48.810;9.150;2022-10-13T06:13:10;22.40;;;7.07;;
773;SDS011;370;48.810;9.150;2022-10-13T06:15:38;23.50;;;6.47;;
773;SDS011;370;48.810;9.150;2022-10-13T06:18:06;13.45;;;7.15;;
773;SDS011;370;48.810;9.150;2022-10-13T06:20:33;20.52;;;6.50;;
773;SDS011;370;48.810;9.150;2022-10-13T06:23:00;20.52;;;7.78;;
773;SDS011;370;48.810;9.150;2022-10-13T06:25:27;22.67;;;7.55;;
773;SDS011;370;48.810;9.150;2022-10-13T06:27:54;21.73;;;8.27;;
773;SDS011;370;48.810;9.150;2022-10-13T06:30:21;22.88;;;8.82;;
773;SDS011;370;48.810;9.150;2022-10-13T06:32:50;26.98;;;7.82;;
773;SDS011;370;48.810;9.150;2022-10-13T06:35:18;20.70;;;8.70;;
773;SDS011;370;48.810;9.150;2022-10-13T06:37:44;16.48;;;6.75;;
773;SDS011;370;48.810;9.150;2022-10-13T06:40:12;19.55;;;7.70;;
773;SDS011;370;48.810;9.150;2022-10-13T06:42:39;19.08;;;6.80;;
773;SDS011;370;48.810;9.150;2022-10-13T06:45:06;24.83;;;7.60;;
773;SDS011;370;48.810;9.150;2022-10-13T06:47:34;40.00;;;9.30;;
773;SDS011;370;48.810;9.150;2022-10-13T06:50:02;24.25;;;6.40;;
773;SDS011;370;48.810;9.150;2022-10-13T06:52:30;28.23;;;7.70;;
773;SDS011;370;48.810;9.150;2022-10-13T06:54:56;25.17;;;7.82;;
773;SDS011;370;48.810;9.150;2022-10-13T06:57:23;20.85;;;8.07;;
773;SDS011;370;48.810;9.150;2022-10-13T06:59:50;23.58;;;8.68;;
773;SDS011;370;48.810;9.150;2022-10-13T07:02:17;33.35;;;8.15;;
773;SDS011;370;48.810;9.150;2022-10-13T07:04:45;22.17;;;8.38;;
773;SDS011;370;48.810;9.150;2022-10-13T07:07:13;18.92;;;7.78;;
773;SDS011;370;48.810;9.150;2022-10-13T07:09:40;21.55;;;8.02;;
773;SDS011;370;48.810;9.150;2022-10-13T07:12:07;23.23;;;7.28;;
773;SDS011;370;48.810;9.150;2022-10-13T07:14:34;21.30;;;7.60;;
773;SDS011;370;48.810;9.150;2022-10-13T07:17:01;28.23;;;6.25;;
773;SDS011;370;48.810;9.150;2022-10-13T07:19:28;19.88;;;6.93;;
773;SDS011;370;48.810;9.150;2022-10-13T07:21:55;26.30;;;6.97;;
773;SDS011;370;48.810;9.150;2022-10-13T07:24:23;20.70;;;6.18;;
773;SDS011;370;48.810;9.150;2022-10-13T07:26:50;14.27;;;7.07;;
773;SDS011;370;48.810;9.150;2022-10-13T07:29:18;15.97;;;6.00;;
773;SDS011;370;48.810;9.150;2022-10-13T07:31:45;23.80;;;6.47;;
773;SDS011;370;48.810;9.150;2022-10-13T07:34:12;23.80;;;8.20;;
773;SDS011;370;48.810;9.150;2022-10-13T07:36:40;18.27;;;7.10;;
773;SDS011;370;48.810;9.150;2022-10-13T07:39:07;20.60;;;7.40;;
773;SDS011;370;48.810;9.150;2022-10-13T07:41:35;20.00;;;6.40;;
773;SDS011;370;48.810;9.150;2022-10-13T07:44:02;39.83;;;8.07;;
773;SDS011;370;48.810;9.150;2022-10-13T07:46:29;17.17;;;7.07;;
773;SDS011;370;48.810;9.150;2022-10-13T07:48:56;21.23;;;6.60;;
773;SDS011;370;48.810;9.150;2022-10-13T07:51:23;16.73;;;7.17;;
773;SDS011;370;48.810;9.150;2022-10-13T07:53:50;28.00;;;7.17;;
773;SDS011;370;48.810;9.150;2022-10-13T07:56:17;23.17;;;7.23;;
773;SDS011;370;48.810;9.150;2022-10-13T07:58:45;16.07;;;6.40;;
773;SDS011;370;48.810;9.150;2022-10-13T08:01:13;22.93;;;6.10;;
773;SDS011;370;48.810;9.150;2022-10-13T08:03:41;15.37;;;7.20;;
773;SDS011;370;48.810;9.150;2022-10-13T08:06:08;18.13;;;6.63;;
773;SDS011;370;48.810;9.150;2022-10-13T08:08:35;20.73;;;6.53;;
773;SDS011;370;48.810;9.150;2022-10-13T08:11:04;18.77;;;5.50;;
773;SDS011;370;48.810;9.150;2022-10-13T08:13:33;15.93;;;5.97;;
773;SDS011;370;48.810;9.150;2022-10-13T08:16:02;17.57;;;6.17;;
773;SDS011;370;48.810;9.150;2022-10-13T08:18:29;30.27;;;6.20;;
773;SDS011;370;48.810;9.150;2022-10-13T08:20:58;17.53;;;5.40;;
773;SDS011;370;48.810;9.150;2022-10-13T08:23:26;11.50;;;5.20;;
773;SDS011;370;48.810;9.150;2022-10-13T08:25:53;10.67;;;4.73;;
773;SDS011;370;48.810;9.150;2022-10-13T08:28:22;14.10;;;5.30;;
773;SDS011;370;48.810;9.150;2022-10-13T08:30:50;15.00;;;5.97;;
773;SDS011;370;48.810;9.150;2022-10-13T08:33:20;12.40;;;5.07;;
773;SDS011;370;48.810;9.150;2022-10-13T08:35:47;12.00;;;4.93;;
773;SDS011;370;48.810;9.150;2022-10-13T08:38:14;12.23;;;4.97;;
773;SDS011;370;48.810;9.150;2022-10-13T08:40:44;16.07;;;4.97;;
773;SDS011;370;48.810;9.150;2022-10-13T08:43:13;10.73;;;4.70;;
773;SDS011;370;48.810;9.150;2022-10-13T08:45:42;7.40;;;4.10;;
773;SDS011;370;48.810;9.150;2022-10-13T08:48:10;13.57;;;5.33;;
773;SDS011;370;48.810;9.150;2022-10-13T08:50:41;8.03;;;4.13;;
773;SDS011;370;48.810;9.150;2022-10-13T08:53:11;8.80;;;4.40;;
773;SDS011;370;48.810;9.150;2022-10-13T08:55:45;7.77;;;4.00;;
773;SDS011;370;48.810;9.150;2022-10-13T08:58:16;12.80;;;5.50;;
773;SDS011;370;48.810;9.150;2022-10-13T09:00:47;13.33;;;4.90;;
773;SDS011;370;48.810;9.150;2022-10-13T09:03:22;21.87;;;4.20;;
773;SDS011;370;48.810;9.150;2022-10-13T09:05:56;16.53;;;4.77;;
773;SDS011;370;48.810;9.150;2022-10-13T09:08:29;7.20;;;3.50;;
773;SDS011;370;48.810;9.150;2022-10-13T09:11:04;6.17;;;4.00;;
773;SDS011;370;48.810;9.150;2022-10-13T09:13:31;5.90;;;3.50;;
773;SDS011;370;48.810;9.150;2022-10-13T09:15:59;9.07;;;4.00;;
773;SDS011;370;48.810;9.150;2022-10-13T09:18:27;15.10;;;4.33;;
773;SDS011;370;48.810;9.150;2022-10-13T09:21:09;8.70;;;3.43;;
773;SDS011;370;48.810;9.150;2022-10-13T09:23:40;10.43;;;3.70;;
773;SDS011;370;48.810;9.150;2022-10-13T09:26:08;11.10;;;3.50;;
773;SDS011;370;48.810;9.150;2022-10-13T09:28:43;8.20;;;3.70;;
773;SDS011;370;48.810;9.150;2022-10-13T09:31:13;6.00;;;3.60;;
773;SDS011;370;48.810;9.150;2022-10-13T09:33:44;21.00;;;4.50;;
773;SDS011;370;48.810;9.150;2022-10-13T09:36:23;12.73;;;4.27;;
773;SDS011;370;48.810;9.150;2022-10-13T09:39:03;11.23;;;3.10;;
773;SDS011;370;48.810;9.150;2022-10-13T09:41:32;22.50;;;5.07;;
773;SDS011;370;48.810;9.150;2022-10-13T09:44:11;8.93;;;3.37;;
773;SDS011;370;48.810;9.150;2022-10-13T09:46:45;8.17;;;3.07;;
773;SDS011;370;48.810;9.150;2022-10-13T09:49:27;11.20;;;4.57;;
773;SDS011;370;48.810;9.150;2022-10-13T09:52:00;8.27;;;3.03;;
773;SDS011;370;48.810;9.150;2022-10-13T09:54:35;6.23;;;3.80;;
773;SDS011;370;48.810;9.150;2022-10-13T09:57:06;8.73;;;3.60;;
773;SDS011;370;48.810;9.150;2022-10-13T09:59:40;6.90;;;3.50;;
773;SDS011;370;48.810;9.150;2022-10-13T10:02:16;6.90;;;3.60;;
773;SDS011;370;48.810;9.150;2022-10-13T10:04:48;6.97;;;3.53;;
773;SDS011;370;48.810;9.150;2022-10-13T10:07:19;6.53;;;2.90;;
773;SDS011;370;48.810;9.150;2022-10-13T10:09:52;8.50;;;4.03;;
773;SDS011;370;48.810;9.150;2022-10-13T10:12:22;10.70;;;3.80;;
773;SDS011;370;48.810;9.150;2022-10-13T10:14:53;6.97;;;3.20;;
773;SDS011;370;48.810;9.150;2022-10-13T10:17:22;4.60;;;3.13;;
773;SDS011;370;48.810;9.150;2022-10-13T10:19:58;4.60;;;2.87;;
773;SDS011;370;48.810;9.150;2022-10-13T10:22:35;11.20;;;3.40;;
773;SDS011;370;48.810;9.150;2022-10-13T10:25:12;16.63;;;4.23;;
773;SDS011;370;48.810;9.150;2022-10-13T10:27:49;7.80;;;3.50;;
773;SDS011;370;48.810;9.150;2022-10-13T10:30:25;7.80;;;2.97;;
773;SDS011;370;48.810;9.150;2022-10-13T10:32:56;7.13;;;2.63;;
773;SDS011;370;48.810;9.150;2022-10-13T10:35:31;9.90;;;3.27;;
773;SDS011;370;48.810;9.150;2022-10-13T10:38:08;18.67;;;3.60;;
773;SDS011;370;48.810;9.150;2022-10-13T10:40:48;12.73;;;3.27;;
773;SDS011;370;48.810;9.150;2022-10-13T10:43:35;5.53;;;3.03;;
773;SDS011;370;48.810;9.150;2022-10-13T10:46:11;4.63;;;2.77;;
773;SDS011;370;48.810;9.150;2022-10-13T10:48:41;8.77;;;3.83;;
773;SDS011;370;48.810;9.150;2022-10-13T10:51:11;9.93;;;2.97;;
773;SDS011;370;48.810;9.150;2022-10-13T10:53:43;9.83;;;2.60;;
773;SDS011;370;48.810;9.150;2022-10-13T10:56:21;7.60;;;3.17;;
773;SDS011;370;48.810;9.150;2022-10-13T10:58:57;7.77;;;2.87;;
773;SDS011;370;48.810;9.150;2022-10-13T11:01:33;7.20;;;3.00;;
773;SDS011;370;48.810;9.150;2022-10-13T11:04:15;11.07;;;3.03;;
773;SDS011;370;48.810;9.150;2022-10-13T11:06:59;6.20;;;3.03;;
773;SDS011;370;48.810;9.150;2022-10-13T11:12:46;7.17;;;3.00;;
773;SDS011;370;48.810;9.150;2022-10-13T11:15:39;6.40;;;2.60;;
773;SDS011;370;48.810;9.150;2022-10-13T11:21:12;8.97;;;3.30;;
773;SDS011;370;48.810;9.150;2022-10-13T11:23:42;4.40;;;2.60;;
773;SDS011;370;48.810;9.150;2022-10-13T11:26:19;7.40;;;3.43;;
773;SDS011;370;48.810;9.150;2022-10-13T11:29:14;10.23;;;3.10;;
773;SDS011;370;48.810;9.150;2022-10-13T11:31:48;5.83;;;3.10;;
773;SDS011;370;48.810;9.150;2022-10-13T11:34:27;12.00;;;4.23;;
773;SDS011;370;48.810;9.150;2022-10-13T11:36:56;7.10;;;3.27;;
773;SDS011;370;48.810;9.150;2022-10-13T11:45:47;9.43;;;2.90;;
773;SDS011;370;48.810;9.150;2022-10-13T11:48:38;8.53;;;3.13;;
773;SDS011;370;48.810;9.150;2022-10-13T11:51:28;6.73;;;3.10;;
773;SDS011;370;48.810;9.150;2022-10-13T11:54:03;9.73;;;3.73;;
773;SDS011;370;48.810;9.150;2022-10-13T11:56:42;9.67;;;3.40;;
773;SDS011;370;48.810;9.150;2022-10-13T11:59:22;10.00;;;4.60;;
773;SDS011;370;48.810;9.150;2022-10-13T12:01:56;5.70;;;3.30;;
773;SDS011;370;48.810;9.150;2022-10-13T12:04:25;15.23;;;3.10;;
773;SDS011;370;48.810;9.150;2022-10-13T12:06:58;5.80;;;2.60;;
773;SDS011;370;48.810;9.150;2022-10-13T12:09:27;8.03;;;3.70;;
773;SDS011;370;48.810;9.150;2022-10-13T12:11:57;6.60;;;2.60;;
773;SDS011;370;48.810;9.150;2022-10-13T12:14:28;5.00;;;2.40;;
773;SDS011;370;48.810;9.150;2022-10-13T12:16:59;17.87;;;3.23;;
773;SDS011;370;48.810;9.150;2022-10-13T12:19:27;6.47;;;3.17;;
773;SDS011;370;48.810;9.150;2022-10-13T12:21:55;6.93;;;3.27;;
773;SDS011;370;48.810;9.150;2022-10-13T12:24:25;8.37;;;3.30;;
773;SDS011;370;48.810;9.150;2022-10-13T12:26:53;3.80;;;2.70;;
773;SDS011;370;48.810;9.150;2022-10-13T12:29:22;5.27;;;3.23;;
773;SDS011;370;48.810;9.150;2022-10-13T12:31:50;5.70;;;2.60;;
773;SDS011;370;48.810;9.150;2022-10-13T12:34:20;3.13;;;2.43;;
773;SDS011;370;48.810;9.150;2022-10-13T12:36:54;3.80;;;2.57;;
773;SDS011;370;48.810;9.150;2022-10-13T12:39:23;5.13;;;3.07;;
773;SDS011;370;48.810;9.150;2022-10-13T12:41:52;8.87;;;2.70;;
773;SDS011;370;48.810;9.150;2022-10-13T12:44:20;6.27;;;2.90;;
773;SDS011;370;48.810;9.150;2022-10-13T12:46:50;5.60;;;3.13;;
773;SDS011;370;48.810;9.150;2022-10-13T12:49:21;7.83;;;3.27;;
773;SDS011;370;48.810;9.150;2022-10-13T12:51:50;4.77;;;2.57;;
773;SDS011;370;48.810;9.150;2022-10-13T12:54:20;6.13;;;2.77;;
773;SDS011;370;48.810;9.150;2022-10-13T12:56:50;18.80;;;4.17;;
773;SDS011;370;48.810;9.150;2022-10-13T12:59:19;16.77;;;3.90;;
773;SDS011;370;48.810;9.150;2022-10-13T13:01:56;7.20;;;3.27;;
773;SDS011;370;48.810;9.150;2022-10-13T13:04:39;13.43;;;2.20;;
773;SDS011;370;48.810;9.150;2022-10-13T13:10:08;4.70;;;2.87;;
773;SDS011;370;48.810;9.150;2022-10-13T13:12:41;3.27;;;2.70;;
773;SDS011;370;48.810;9.150;2022-10-13T13:15:19;3.87;;;2.70;;
773;SDS011;370;48.810;9.150;2022-10-13T13:18:21;5.67;;;2.47;;
773;SDS011;370;48.810;9.150;2022-10-13T13:21:02;8.73;;;2.30;;
773;SDS011;370;48.810;9.150;2022-10-13T13:23:30;11.23;;;2.70;;
773;SDS011;370;48.810;9.150;2022-10-13T13:26:00;8.13;;;2.63;;
773;SDS011;370;48.810;9.150;2022-10-13T13:28:28;6.17;;;2.73;;
773;SDS011;370;48.810;9.150;2022-10-13T13:30:56;7.97;;;2.90;;
773;SDS011;370;48.810;9.150;2022-10-13T13:33:23;6.93;;;2.47;;
773;SDS011;370;48.810;9.150;2022-10-13T13:35:50;8.63;;;3.37;;
773;SDS011;370;48.810;9.150;2022-10-13T13:38:19;10.50;;;2.53;;
773;SDS011;370;48.810;9.150;2022-10-13T13:40:45;3.63;;;2.53;;
773;SDS011;370;48.810;9.150;2022-10-13T13:43:12;4.20;;;2.57;;
773;SDS011;370;48.810;9.150;2022-10-13T13:45:39;7.60;;;2.00;;
773;SDS011;370;48.810;9.150;2022-10-13T13:48:06;5.07;;;2.87;;
773;SDS011;370;48.810;9.150;2022-10-13T13:50:36;7.37;;;2.60;;
773;SDS011;370;48.810;9.150;2022-10-13T13:53:03;10.90;;;2.70;;
773;SDS011;370;48.810;9.150;2022-10-13T13:55:32;9.33;;;2.93;;
773;SDS011;370;48.810;9.150;2022-10-13T13:57:59;4.40;;;2.13;;
773;SDS011;370;48.810;9.150;2022-10-13T14:00:26;7.33;;;2.93;;
773;SDS011;370;48.810;9.150;2022-10-13T14:02:53;6.07;;;2.53;;
773;SDS011;370;48.810;9.150;2022-10-13T14:05:20;7.93;;;2.53;;
773;SDS011;370;48.810;9.150;2022-10-13T14:07:47;5.27;;;2.57;;
773;SDS011;370;48.810;9.150;2022-10-13T14:10:14;4.93;;;2.97;;
773;SDS011;370;48.810;9.150;2022-10-13T14:12:42;6.33;;;2.77;;
773;SDS011;370;48.810;9.150;2022-10-13T14:15:09;11.57;;;3.13;;
773;SDS011;370;48.810;9.150;2022-10-13T14:17:36;12.73;;;3.20;;
773;SDS011;370;48.810;9.150;2022-10-13T14:20:03;5.60;;;2.43;;
773;SDS011;370;48.810;9.150;2022-10-13T14:22:31;11.13;;;2.70;;
773;SDS011;370;48.810;9.150;2022-10-13T14:24:57;10.30;;;2.53;;
773;SDS011;370;48.810;9.150;2022-10-13T14:27:24;8.27;;;2.80;;
773;SDS011;370;48.810;9.150;2022-10-13T14:29:52;12.90;;;3.03;;
773;SDS011;370;48.810;9.150;2022-10-13T14:32:19;6.43;;;3.17;;
773;SDS011;370;48.810;9.150;2022-10-13T14:34:46;7.50;;;3.33;;
773;SDS011;370;48.810;9.150;2022-10-13T14:37:13;8.63;;;3.90;;
773;SDS011;370;48.810;9.150;2022-10-13T14:39:40;7.60;;;3.67;;
773;SDS011;370;48.810;9.150;2022-10-13T14:42:06;10.23;;;2.80;;
773;SDS011;370;48.810;9.150;2022-10-13T14:44:33;10.13;;;3.33;;
773;SDS011;370;48.810;9.150;2022-10-13T14:47:02;4.90;;;2.90;;
773;SDS011;370;48.810;9.150;2022-10-13T14:49:28;7.23;;;3.30;;
773;SDS011;370;48.810;9.150;2022-10-13T14:51:55;7.97;;;3.03;;
773;SDS011;370;48.810;9.150;2022-10-13T14:54:22;5.40;;;3.03;;
773;SDS011;370;48.810;9.150;2022-10-13T14:56:49;13.37;;;3.90;;
773;SDS011;370;48.810;9.150;2022-10-13T14:59:16;10.63;;;3.90;;
773;SDS011;370;48.810;9.150;2022-10-13T15:01:43;8.37;;;2.77;;
773;SDS011;370;48.810;9.150;2022-10-13T15:04:12;6.23;;;3.63;;
773;SDS011;370;48.810;9.150;2022-10-13T15:06:39;6.10;;;2.53;;
773;SDS011;370;48.810;9.150;2022-10-13T15:09:06;9.83;;;3.73;;
773;SDS011;370;48.810;9.150;2022-10-13T15:11:33;6.83;;;3.80;;
773;SDS011;370;48.810;9.150;2022-10-13T15:14:00;11.23;;;4.57;;
773;SDS011;370;48.810;9.150;2022-10-13T15:16:28;11.40;;;3.83;;
773;SDS011;370;48.810;9.150;2022-10-13T15:18:57;6.03;;;3.53;;
773;SDS011;370;48.810;9.150;2022-10-13T15:21:25;7.13;;;3.80;;
773;SDS011;370;48.810;9.150;2022-10-13T15:23:53;8.03;;;4.37;;
773;SDS011;370;48.810;9.150;2022-10-13T15:26:22;11.57;;;4.10;;
773;SDS011;370;48.810;9.150;2022-10-13T15:28:49;11.10;;;4.20;;
773;SDS011;370;48.810;9.150;2022-10-13T15:31:17;15.70;;;4.60;;
773;SDS011;370;48.810;9.150;2022-10-13T15:33:45;9.47;;;4.30;;
773;SDS011;370;48.810;9.150;2022-10-13T15:36:13;32.33;;;5.30;;
773;SDS011;370;48.810;9.150;2022-10-13T15:38:41;12.23;;;4.00;;
773;SDS011;370;48.810;9.150;2022-10-13T15:41:09;12.53;;;4.30;;
773;SDS011;370;48.810;9.150;2022-10-13T15:43:36;14.80;;;4.23;;
773;SDS011;370;48.810;9.150;2022-10-13T15:46:04;7.30;;;3.60;;
773;SDS011;370;48.810;9.150;2022-10-13T15:48:32;11.13;;;4.33;;
773;SDS011;370;48.810;9.150;2022-10-13T15:51:00;11.83;;;4.60;;
773;SDS011;370;48.810;9.150;2022-10-13T15:53:28;9.33;;;4.80;;
773;SDS011;370;48.810;9.150;2022-10-13T15:55:56;9.83;;;4.10;;
773;SDS011;370;48.810;9.150;2022-10-13T15:58:26;20.83;;;4.77;;
773;SDS011;370;48.810;9.150;2022-10-13T16:00:53;13.20;;;5.07;;
773;SDS011;370;48.810;9.150;2022-10-13T16:03:20;18.20;;;4.13;;
773;SDS011;370;48.810;9.150;2022-10-13T16:05:48;16.57;;;4.27;;
773;SDS011;370;48.810;9.150;2022-10-13T16:08:15;10.70;;;3.67;;
773;SDS011;370;48.810;9.150;2022-10-13T16:10:43;10.20;;;3.90;;
773;SDS011;370;48.810;9.150;2022-10-13T16:13:13;12.63;;;4.80;;